createdAt,value
2022-12-05T00:02:04.878Z,2.43
2022-12-05T00:04:33.524Z,2.60
2022-12-05T00:07:03.545Z,2.33
2022-12-05T00:09:32.255Z,2.20
2022-12-05T00:12:00.833Z,2.43
2022-12-05T00:14:29.481Z,2.37
2022-12-05T00:16:58.153Z,2.23
2022-12-05T00:19:26.911Z,2.00
2022-12-05T00:21:55.454Z,2.20
2022-12-05T00:24:25.531Z,2.20
2022-12-05T00:26:54.179Z,2.20
2022-12-05T00:29:22.675Z,1.70
2022-12-05T00:31:51.383Z,1.30
2022-12-05T00:34:20.186Z,1.10
2022-12-05T00:36:48.737Z,1.10
2022-12-05T00:39:17.550Z,1.43
2022-12-05T00:41:47.545Z,1.10
2022-12-05T00:44:16.133Z,1.20
2022-12-05T00:46:44.820Z,1.50
2022-12-05T00:49:14.178Z,1.30
2022-12-05T00:51:44.531Z,1.23
2022-12-05T00:54:14.837Z,1.20
2022-12-05T00:56:43.917Z,1.33
2022-12-05T00:59:20.445Z,1.40
2022-12-05T01:01:50.512Z,1.37
2022-12-05T01:04:21.306Z,1.20
2022-12-05T01:06:50.166Z,1.30
2022-12-05T01:09:21.510Z,1.30
2022-12-05T01:11:50.664Z,1.20
2022-12-05T01:14:22.720Z,1.20
2022-12-05T01:16:53.021Z,1.10
2022-12-05T01:19:24.618Z,1.30
2022-12-05T01:21:53.679Z,1.30
2022-12-05T01:24:23.262Z,1.40
2022-12-05T01:26:51.835Z,1.30
2022-12-05T01:29:23.843Z,1.30
2022-12-05T01:31:52.844Z,1.40
2022-12-05T01:34:21.621Z,1.20
2022-12-05T01:36:50.342Z,1.60
2022-12-05T01:39:19.022Z,1.30
2022-12-05T01:41:50.000Z,1.10
2022-12-05T01:44:58.102Z,1.40
2022-12-05T01:47:31.946Z,1.43
2022-12-05T01:50:01.936Z,1.00
2022-12-05T01:52:32.637Z,1.60
2022-12-05T01:55:04.874Z,1.27
2022-12-05T01:57:34.677Z,1.30
2022-12-05T02:00:07.544Z,1.40
2022-12-05T02:02:37.631Z,1.50
2022-12-05T02:05:09.022Z,1.50
2022-12-05T02:07:42.059Z,1.53
2022-12-05T02:10:12.020Z,1.23
2022-12-05T02:12:40.928Z,1.20
2022-12-05T02:15:36.746Z,1.10
2022-12-05T02:18:20.620Z,1.20
2022-12-05T02:21:04.634Z,1.27
2022-12-05T02:23:53.559Z,1.03
2022-12-05T02:26:57.334Z,1.33
2022-12-05T02:29:52.978Z,1.20
2022-12-05T02:32:33.166Z,1.00
2022-12-05T02:35:07.250Z,1.10
2022-12-05T02:37:44.390Z,1.10
2022-12-05T02:40:18.007Z,1.17
2022-12-05T02:42:54.516Z,1.10
2022-12-05T02:45:27.928Z,1.30
2022-12-05T02:47:58.949Z,1.00
2022-12-05T02:50:32.349Z,1.13
2022-12-05T02:53:05.200Z,0.90
2022-12-05T02:55:35.092Z,1.10
2022-12-05T02:58:07.041Z,1.30
2022-12-05T03:00:39.935Z,1.10
2022-12-05T03:03:16.740Z,1.23
2022-12-05T03:05:50.759Z,1.23
2022-12-05T03:08:22.619Z,1.10
2022-12-05T03:10:54.608Z,1.27
2022-12-05T03:13:28.088Z,1.03
2022-12-05T03:16:01.706Z,1.20
2022-12-05T03:18:34.257Z,1.17
2022-12-05T03:21:09.471Z,1.20
2022-12-05T03:23:46.261Z,1.00
2022-12-05T03:26:26.296Z,1.17
2022-12-05T03:29:01.286Z,1.00
2022-12-05T03:31:40.131Z,1.00
2022-12-05T03:34:15.903Z,1.00
2022-12-05T03:36:49.543Z,1.00
2022-12-05T03:39:23.756Z,1.10
2022-12-05T03:41:58.991Z,1.10
2022-12-05T03:44:35.150Z,1.17
2022-12-05T03:47:08.182Z,1.20
2022-12-05T03:49:42.661Z,1.17
2022-12-05T03:52:15.179Z,1.00
2022-12-05T03:54:47.650Z,1.10
2022-12-05T03:57:20.127Z,1.20
2022-12-05T03:59:54.739Z,1.20
2022-12-05T04:02:28.431Z,1.23
2022-12-05T04:05:04.083Z,1.30
2022-12-05T04:07:35.696Z,1.20
2022-12-05T04:10:09.568Z,1.10
2022-12-05T04:12:39.470Z,1.30
2022-12-05T04:15:12.064Z,1.30
2022-12-05T04:17:49.214Z,1.30
2022-12-05T04:20:43.893Z,1.40
2022-12-05T04:23:12.578Z,1.27
2022-12-05T04:25:51.141Z,1.30
2022-12-05T04:28:29.304Z,1.27
2022-12-05T04:31:05.938Z,1.30
2022-12-05T04:33:40.162Z,1.40
2022-12-05T04:36:15.952Z,1.43
2022-12-05T04:38:49.529Z,1.50
2022-12-05T04:41:22.330Z,1.37
2022-12-05T04:43:52.499Z,1.50
2022-12-05T04:46:23.005Z,1.40
2022-12-05T04:48:54.956Z,1.40
2022-12-05T04:51:28.073Z,1.60
2022-12-05T04:54:02.072Z,1.40
2022-12-05T04:56:35.438Z,1.50
2022-12-05T04:59:03.854Z,1.63
2022-12-05T05:01:36.483Z,1.40
2022-12-05T05:04:10.714Z,1.30
2022-12-05T05:06:40.886Z,1.50
2022-12-05T05:09:10.234Z,1.40
2022-12-05T05:11:38.789Z,1.30
2022-12-05T05:14:07.548Z,1.57
2022-12-05T05:16:37.619Z,1.60
2022-12-05T05:19:07.146Z,1.60
2022-12-05T05:21:36.973Z,1.50
2022-12-05T05:24:08.329Z,2.10
2022-12-05T05:26:38.901Z,1.60
2022-12-05T05:29:07.467Z,1.70
2022-12-05T05:31:36.206Z,1.70
2022-12-05T05:34:09.436Z,1.50
2022-12-05T05:36:39.167Z,2.00
2022-12-05T05:39:15.115Z,2.00
2022-12-05T05:41:44.025Z,2.43
2022-12-05T05:44:12.608Z,2.60
2022-12-05T05:46:40.991Z,2.60
2022-12-05T05:49:09.382Z,2.70
2022-12-05T05:51:37.684Z,2.77
2022-12-05T05:54:06.267Z,2.63
2022-12-05T05:56:36.113Z,2.73
2022-12-05T05:59:05.442Z,2.60
2022-12-05T06:01:33.864Z,2.97
2022-12-05T06:04:02.355Z,2.50
2022-12-05T06:06:30.970Z,2.30
2022-12-05T06:08:59.532Z,2.40
2022-12-05T06:11:29.174Z,2.27
2022-12-05T06:14:02.241Z,2.10
2022-12-05T06:16:31.942Z,2.30
2022-12-05T06:19:00.833Z,1.90
2022-12-05T06:21:29.128Z,2.10
2022-12-05T06:23:57.450Z,2.10
2022-12-05T06:26:25.777Z,2.40
2022-12-05T06:28:54.721Z,2.30
2022-12-05T06:31:27.150Z,9.70
2022-12-05T06:33:55.935Z,11.93
2022-12-05T06:36:24.477Z,11.00
2022-12-05T06:38:52.797Z,9.90
2022-12-05T06:41:24.451Z,9.07
2022-12-05T06:44:00.147Z,7.70
2022-12-05T06:46:31.799Z,7.20
2022-12-05T06:49:00.872Z,6.03
2022-12-05T06:51:29.377Z,5.40
2022-12-05T06:53:57.809Z,6.07
2022-12-05T06:56:26.117Z,5.10
2022-12-05T06:58:55.714Z,4.60
2022-12-05T07:01:41.691Z,3.97
2022-12-05T07:04:16.661Z,3.40
2022-12-05T07:06:50.544Z,3.13
2022-12-05T07:09:20.876Z,3.43
2022-12-05T07:11:49.944Z,3.10
2022-12-05T07:14:45.781Z,2.93
2022-12-05T07:17:07.316Z,3.10
2022-12-05T07:19:37.301Z,3.40
2022-12-05T07:22:09.456Z,3.10
2022-12-05T07:24:42.323Z,3.10
2022-12-05T07:27:10.634Z,2.70
2022-12-05T07:29:39.013Z,2.83
2022-12-05T07:32:07.799Z,2.93
2022-12-05T07:34:39.001Z,3.03
2022-12-05T07:37:08.218Z,3.40
2022-12-05T07:39:36.530Z,3.70
2022-12-05T07:42:04.880Z,3.27
2022-12-05T07:44:33.505Z,3.40
2022-12-05T07:47:01.794Z,3.50
2022-12-05T07:49:30.213Z,3.33
2022-12-05T07:51:59.945Z,3.60
2022-12-05T07:54:28.274Z,3.40
2022-12-05T07:56:56.788Z,4.50
2022-12-05T07:59:25.023Z,4.37
2022-12-05T08:01:53.525Z,4.73
2022-12-05T08:04:21.845Z,4.63
2022-12-05T08:06:50.178Z,4.60
2022-12-05T08:09:19.917Z,5.50
2022-12-05T08:11:52.373Z,5.90
2022-12-05T08:14:21.774Z,5.97
2022-12-05T08:16:50.166Z,5.70
2022-12-05T08:19:18.499Z,4.90
2022-12-05T08:21:46.944Z,4.70
2022-12-05T08:24:15.250Z,5.07
2022-12-05T08:26:45.072Z,6.40
2022-12-05T08:29:15.602Z,6.93
2022-12-05T08:31:47.255Z,6.53
2022-12-05T08:34:16.730Z,6.63
2022-12-05T08:36:45.346Z,6.80
2022-12-05T08:39:16.134Z,6.90
2022-12-05T08:41:46.869Z,7.20
2022-12-05T08:44:17.136Z,7.90
2022-12-05T08:46:47.335Z,9.10
2022-12-05T08:49:17.134Z,8.87
2022-12-05T08:51:45.691Z,9.07
2022-12-05T08:54:14.280Z,8.20
2022-12-05T08:56:42.603Z,7.60
2022-12-05T08:59:12.382Z,7.77
2022-12-05T09:01:42.307Z,8.47
2022-12-05T09:04:12.536Z,8.60
2022-12-05T09:06:42.172Z,8.30
2022-12-05T09:09:12.642Z,8.17
2022-12-05T09:11:46.524Z,6.77
2022-12-05T09:14:17.202Z,6.53
2022-12-05T09:16:47.601Z,5.60
2022-12-05T09:19:18.105Z,5.60
2022-12-05T09:21:46.764Z,5.30
2022-12-05T09:24:15.353Z,5.00
2022-12-05T09:26:44.187Z,4.70
2022-12-05T09:29:17.038Z,4.20
2022-12-05T09:31:52.318Z,5.50
2022-12-05T09:34:20.840Z,7.30
2022-12-05T09:37:05.628Z,6.30
2022-12-05T09:39:39.127Z,4.57
2022-12-05T09:42:37.810Z,4.60
2022-12-05T09:45:20.054Z,4.53
2022-12-05T09:47:56.442Z,3.73
2022-12-05T09:50:28.270Z,3.57
2022-12-05T09:53:11.023Z,3.37
2022-12-05T09:55:47.810Z,3.47
2022-12-05T09:58:23.697Z,2.87
2022-12-05T10:00:56.069Z,3.13
2022-12-05T10:03:30.652Z,3.03
2022-12-05T10:06:11.131Z,3.20
2022-12-05T10:08:53.707Z,2.90
2022-12-05T10:11:29.272Z,3.60
2022-12-05T10:14:06.581Z,3.30
2022-12-05T10:16:39.164Z,3.30
2022-12-05T10:19:14.239Z,2.93
2022-12-05T10:21:50.804Z,3.30
2022-12-05T10:24:24.996Z,3.20
2022-12-05T10:26:58.738Z,2.93
2022-12-05T10:29:31.307Z,3.00
2022-12-05T10:32:06.969Z,2.80
2022-12-05T10:34:40.021Z,3.37
2022-12-05T10:37:15.170Z,2.90
2022-12-05T10:39:43.623Z,2.80
2022-12-05T10:42:16.677Z,2.50
2022-12-05T10:44:45.811Z,2.60
2022-12-05T10:47:14.512Z,2.30
2022-12-05T10:49:44.692Z,2.70
2022-12-05T10:52:15.396Z,2.13
2022-12-05T10:54:48.596Z,2.50
2022-12-05T10:57:27.712Z,2.43
2022-12-05T10:59:56.754Z,2.37
2022-12-05T11:02:28.738Z,2.30
2022-12-05T11:04:59.626Z,2.40
2022-12-05T11:07:32.158Z,2.27
2022-12-05T11:10:02.658Z,2.40
2022-12-05T11:12:37.518Z,1.93
2022-12-05T11:15:08.518Z,2.43
2022-12-05T11:17:39.104Z,2.33
2022-12-05T11:20:35.628Z,2.23
2022-12-05T11:23:19.368Z,2.30
2022-12-05T11:25:47.703Z,2.50
2022-12-05T11:28:34.782Z,3.03
2022-12-05T11:31:05.182Z,3.20
2022-12-05T11:33:34.617Z,3.43
2022-12-05T11:36:11.561Z,2.63
2022-12-05T11:38:42.414Z,4.17
2022-12-05T11:41:32.005Z,3.40
2022-12-05T11:44:24.149Z,2.83
2022-12-05T11:47:01.222Z,2.73
2022-12-05T11:49:54.225Z,2.47
2022-12-05T11:52:40.890Z,2.53
2022-12-05T11:55:18.655Z,2.60
2022-12-05T11:58:16.856Z,2.33
2022-12-05T12:00:54.445Z,2.67
2022-12-05T12:03:55.199Z,2.40
2022-12-05T12:06:31.726Z,2.90
2022-12-05T12:09:22.464Z,2.63
2022-12-05T12:11:56.096Z,2.93
2022-12-05T12:14:31.988Z,3.23
2022-12-05T12:17:09.954Z,3.43
2022-12-05T12:20:00.926Z,2.93
2022-12-05T12:22:41.610Z,3.13
2022-12-05T12:25:27.116Z,2.70
2022-12-05T12:28:06.055Z,2.67
2022-12-05T12:30:48.950Z,2.70
2022-12-05T12:33:31.499Z,2.90
2022-12-05T12:36:10.869Z,2.70
2022-12-05T12:39:00.665Z,2.80
2022-12-05T12:41:46.855Z,2.97
2022-12-05T12:44:39.355Z,3.10
2022-12-05T12:47:16.523Z,3.73
2022-12-05T12:49:56.742Z,3.17
2022-12-05T12:52:29.394Z,3.10
2022-12-05T12:55:10.222Z,3.33
2022-12-05T12:57:53.743Z,2.93
2022-12-05T13:00:29.886Z,3.17
2022-12-05T13:03:05.556Z,2.77
2022-12-05T13:05:39.954Z,2.83
2022-12-05T13:08:15.796Z,4.40
2022-12-05T13:10:46.715Z,3.60
2022-12-05T13:13:22.254Z,3.13
2022-12-05T13:15:54.104Z,2.90
2022-12-05T13:18:24.493Z,2.97
2022-12-05T13:20:57.773Z,2.67
2022-12-05T13:23:28.951Z,2.47
2022-12-05T13:25:59.192Z,3.30
2022-12-05T13:28:31.754Z,3.20
2022-12-05T13:31:06.478Z,3.40
2022-12-05T13:33:37.188Z,3.40
2022-12-05T13:36:26.628Z,3.77
2022-12-05T13:39:17.845Z,5.23
2022-12-05T13:42:06.341Z,5.60
2022-12-05T13:44:40.223Z,4.40
2022-12-05T13:47:20.913Z,3.47
2022-12-05T13:49:54.565Z,3.40
2022-12-05T13:52:27.820Z,3.43
2022-12-05T13:55:01.729Z,3.00
2022-12-05T13:57:49.732Z,3.13
2022-12-05T14:00:29.780Z,2.73
2022-12-05T14:06:59.032Z,2.50
2022-12-05T14:09:32.290Z,2.50
2022-12-05T14:12:46.981Z,2.53
2022-12-05T14:15:34.433Z,2.70
2022-12-05T14:18:12.310Z,2.60
2022-12-05T14:20:57.273Z,2.27
2022-12-05T14:23:44.298Z,2.80
2022-12-05T14:26:38.750Z,3.40
2022-12-05T14:29:25.304Z,6.83
2022-12-05T14:32:07.051Z,10.60
2022-12-05T14:34:38.083Z,11.47
2022-12-05T14:37:09.372Z,10.10
2022-12-05T14:39:41.576Z,8.20
2022-12-05T14:42:27.999Z,7.70
2022-12-05T14:44:59.435Z,6.37
2022-12-05T14:47:33.671Z,5.23
2022-12-05T14:50:22.652Z,5.40
2022-12-05T14:53:30.329Z,4.83
2022-12-05T14:56:11.865Z,3.80
2022-12-05T14:58:45.849Z,3.40
2022-12-05T15:01:18.399Z,3.93
2022-12-05T15:04:06.489Z,4.40
2022-12-05T15:06:38.360Z,4.83
2022-12-05T15:09:35.930Z,6.80
2022-12-05T15:12:03.476Z,6.40
2022-12-05T15:14:41.096Z,6.70
2022-12-05T15:17:16.141Z,11.83
2022-12-05T15:19:52.999Z,9.03
2022-12-05T15:22:24.169Z,4.63
2022-12-05T15:24:52.554Z,3.93
2022-12-05T15:27:22.232Z,3.00
2022-12-05T15:29:54.554Z,3.00
2022-12-05T15:32:28.242Z,2.77
2022-12-05T15:35:02.534Z,2.97
2022-12-05T15:37:35.476Z,3.17
2022-12-05T15:40:10.742Z,4.30
2022-12-05T15:42:43.839Z,3.27
2022-12-05T15:45:23.588Z,3.10
2022-12-05T15:47:54.600Z,4.60
2022-12-05T15:50:32.407Z,7.67
2022-12-05T15:53:05.574Z,8.70
2022-12-05T15:55:40.036Z,6.10
2022-12-05T15:58:13.559Z,5.40
2022-12-05T16:00:46.501Z,5.17
2022-12-05T16:03:19.537Z,4.47
2022-12-05T16:05:54.966Z,4.23
2022-12-05T16:08:24.574Z,4.03
2022-12-05T16:10:53.298Z,3.33
2022-12-05T16:13:26.164Z,3.37
2022-12-05T16:15:56.260Z,3.47
2022-12-05T16:18:28.658Z,3.03
2022-12-05T16:20:58.685Z,3.10
2022-12-05T16:23:30.142Z,3.10
2022-12-05T16:26:20.017Z,3.43
2022-12-05T16:28:59.205Z,3.17
2022-12-05T16:31:27.647Z,3.30
2022-12-05T16:34:05.253Z,3.50
2022-12-05T16:36:35.580Z,4.00
2022-12-05T16:39:06.902Z,3.33
2022-12-05T16:41:37.143Z,3.60
2022-12-05T16:44:13.035Z,3.47
2022-12-05T16:46:46.915Z,3.47
2022-12-05T16:49:21.583Z,4.63
2022-12-05T16:52:00.366Z,3.57
2022-12-05T16:54:28.806Z,4.33
2022-12-05T16:56:57.898Z,4.00
2022-12-05T16:59:32.196Z,4.37
2022-12-05T17:02:02.063Z,6.93
2022-12-05T17:04:31.589Z,5.00
2022-12-05T17:07:01.689Z,2.70
2022-12-05T17:09:30.120Z,2.40
2022-12-05T17:12:03.916Z,2.43
2022-12-05T17:14:32.361Z,3.20
2022-12-05T17:17:03.239Z,4.37
2022-12-05T17:19:32.821Z,7.70
2022-12-05T17:22:02.480Z,10.67
2022-12-05T17:24:30.785Z,15.63
2022-12-05T17:26:59.329Z,18.37
2022-12-05T17:29:31.143Z,19.90
2022-12-05T17:32:03.869Z,24.00
2022-12-05T17:34:32.571Z,28.00
2022-12-05T17:37:02.817Z,24.70
2022-12-05T17:39:31.236Z,20.83
2022-12-05T17:41:59.590Z,20.33
2022-12-05T17:44:28.119Z,23.53
2022-12-05T17:46:56.684Z,23.87
2022-12-05T17:49:25.255Z,18.47
2022-12-05T17:54:44.096Z,12.93
2022-12-05T17:57:12.408Z,20.93
2022-12-05T17:59:40.662Z,20.23
2022-12-05T18:02:10.928Z,16.97
2022-12-05T18:04:39.279Z,13.77
2022-12-05T18:07:07.996Z,12.33
2022-12-05T18:09:36.354Z,14.43
2022-12-05T18:12:06.693Z,14.53
2022-12-05T18:14:36.182Z,14.53
2022-12-05T18:17:04.747Z,11.53
2022-12-05T18:19:33.168Z,10.27
2022-12-05T18:22:01.517Z,9.07
2022-12-05T18:24:30.035Z,9.77
2022-12-05T18:26:58.699Z,11.53
2022-12-05T18:29:28.539Z,11.03
2022-12-05T18:31:56.952Z,11.93
2022-12-05T18:34:25.608Z,14.47
2022-12-05T18:36:54.877Z,15.20
2022-12-05T18:39:23.454Z,15.37
2022-12-05T18:41:51.772Z,14.40
2022-12-05T18:44:20.253Z,13.17
2022-12-05T18:46:49.933Z,10.97
2022-12-05T18:49:18.620Z,11.60
2022-12-05T18:51:47.161Z,13.83
2022-12-05T18:54:15.978Z,13.60
2022-12-05T18:56:46.027Z,11.33
2022-12-05T18:59:15.792Z,10.80
2022-12-05T19:01:45.226Z,10.13
2022-12-05T19:04:17.583Z,8.83
2022-12-05T19:06:50.682Z,9.17
2022-12-05T19:09:20.992Z,13.80
2022-12-05T19:11:51.479Z,17.10
2022-12-05T19:14:21.021Z,18.53
2022-12-05T19:16:54.931Z,16.23
2022-12-05T19:19:28.252Z,17.03
2022-12-05T19:21:58.821Z,13.43
2022-12-05T19:24:27.629Z,7.53
2022-12-05T19:26:55.960Z,4.17
2022-12-05T19:29:24.208Z,3.20
2022-12-05T19:31:52.560Z,17.53
2022-12-05T19:34:20.971Z,17.53
2022-12-05T19:36:50.642Z,29.83
2022-12-05T19:39:21.005Z,36.17
2022-12-05T19:41:50.346Z,45.70
2022-12-05T19:44:19.260Z,51.67
2022-12-05T19:46:47.692Z,41.70
2022-12-05T19:49:17.660Z,26.73
2022-12-05T19:51:46.630Z,17.00
2022-12-05T19:54:18.134Z,14.17
2022-12-05T19:56:46.567Z,13.27
2022-12-05T19:59:16.910Z,14.77
2022-12-05T20:01:45.859Z,11.57
2022-12-05T20:04:16.937Z,10.40
2022-12-05T20:06:46.570Z,8.97
2022-12-05T20:09:18.773Z,8.43
2022-12-05T20:11:54.658Z,11.03
2022-12-05T20:14:25.097Z,13.73
2022-12-05T20:16:53.734Z,16.33
2022-12-05T20:19:22.442Z,16.63
2022-12-05T20:21:50.732Z,15.80
2022-12-05T20:24:20.430Z,14.00
2022-12-05T20:26:48.714Z,18.23
2022-12-05T20:29:17.005Z,18.93
2022-12-05T20:31:45.291Z,17.23
2022-12-05T20:34:15.301Z,18.47
2022-12-05T20:36:43.878Z,19.00
2022-12-05T20:39:14.757Z,14.77
2022-12-05T20:41:45.113Z,11.20
2022-12-05T20:44:16.160Z,8.33
2022-12-05T20:46:44.726Z,7.60
2022-12-05T20:49:14.069Z,9.30
2022-12-05T20:51:44.093Z,11.07
2022-12-05T20:54:14.319Z,13.23
2022-12-05T20:56:45.767Z,14.90
2022-12-05T20:59:15.991Z,15.77
2022-12-05T21:01:47.475Z,17.70
2022-12-05T21:04:16.923Z,18.67
2022-12-05T21:06:46.998Z,18.83
2022-12-05T21:09:26.970Z,13.93
2022-12-05T21:11:57.957Z,10.90
2022-12-05T21:14:26.336Z,10.10
2022-12-05T21:16:54.850Z,8.37
2022-12-05T21:19:23.817Z,8.10
2022-12-05T21:21:53.912Z,7.10
2022-12-05T21:24:22.651Z,6.80
2022-12-05T21:26:51.869Z,7.47
2022-12-05T21:29:21.607Z,9.00
2022-12-05T21:31:52.490Z,10.03
2022-12-05T21:34:22.062Z,14.30
2022-12-05T21:36:50.845Z,16.63
2022-12-05T21:39:19.375Z,17.37
2022-12-05T21:41:48.558Z,16.47
2022-12-05T21:44:16.830Z,15.20
2022-12-05T21:46:46.744Z,13.10
2022-12-05T21:49:15.075Z,11.87
2022-12-05T21:51:43.740Z,12.10
2022-12-05T21:54:12.225Z,12.63
2022-12-05T21:56:40.641Z,12.67
2022-12-05T21:59:08.961Z,12.97
2022-12-05T22:01:37.314Z,12.90
2022-12-05T22:04:07.134Z,10.17
2022-12-05T22:06:35.805Z,9.47
2022-12-05T22:09:04.656Z,9.30
2022-12-05T22:11:33.145Z,8.67
2022-12-05T22:14:01.458Z,6.83
2022-12-05T22:16:33.403Z,6.60
2022-12-05T22:19:02.137Z,5.53
2022-12-05T22:21:33.982Z,5.77
2022-12-05T22:24:03.075Z,5.40
2022-12-05T22:26:31.501Z,4.40
2022-12-05T22:28:59.885Z,3.80
2022-12-05T22:31:28.337Z,4.00
2022-12-05T22:33:56.672Z,4.37
2022-12-05T22:36:25.439Z,4.43
2022-12-05T22:38:55.104Z,5.13
2022-12-05T22:41:25.542Z,4.63
2022-12-05T22:43:57.181Z,4.60
2022-12-05T22:46:27.851Z,4.40
2022-12-05T22:48:56.596Z,4.43
2022-12-05T22:51:27.593Z,4.50
2022-12-05T22:53:57.951Z,4.53
2022-12-05T22:56:27.993Z,4.90
2022-12-05T22:58:57.863Z,4.50
2022-12-05T23:01:28.136Z,4.80
2022-12-05T23:03:58.067Z,4.43
2022-12-05T23:06:27.259Z,4.50
2022-12-05T23:08:57.373Z,4.60
2022-12-05T23:11:26.962Z,4.40
2022-12-05T23:14:01.406Z,4.00
2022-12-05T23:16:32.525Z,4.30
2022-12-05T23:19:03.719Z,4.60
2022-12-05T23:21:34.294Z,5.40
2022-12-05T23:24:06.026Z,5.87
2022-12-05T23:26:36.142Z,6.07
2022-12-05T23:29:04.958Z,5.00
2022-12-05T23:31:33.652Z,4.37
2022-12-05T23:34:03.927Z,4.17
2022-12-05T23:36:32.990Z,4.10
2022-12-05T23:39:03.811Z,4.17
2022-12-05T23:41:32.253Z,3.70
2022-12-05T23:44:00.682Z,3.90
2022-12-05T23:46:29.456Z,3.67
2022-12-05T23:48:58.333Z,3.50
2022-12-05T23:51:28.556Z,3.43
2022-12-05T23:53:59.771Z,3.40
2022-12-05T23:56:31.336Z,3.80
2022-12-05T23:58:59.795Z,3.87
